sensor_id;sensor_type;location;lat;lon;timestamp;temperature;humidity
2447;DHT22;26430;48.818;9.244;2023-03-01T00:01:21;0.30;99.90
2447;DHT22;26430;48.818;9.244;2023-03-01T00:03:47;0.40;99.90
2447;DHT22;26430;48.818;9.244;2023-03-01T00:06:13;0.40;99.90
2447;DHT22;26430;48.818;9.244;2023-03-01T00:08:39;0.40;99.90
2447;DHT22;26430;48.818;9.244;2023-03-01T00:13:40;0.40;99.90
2447;DHT22;26430;48.818;9.244;2023-03-01T00:16:14;0.40;99.90
2447;DHT22;26430;48.818;9.244;2023-03-01T00:18:40;0.40;99.90
2447;DHT22;26430;48.818;9.244;2023-03-01T00:21:05;0.40;99.90
2447;DHT22;26430;48.818;9.244;2023-03-01T00:23:33;0.30;99.90
2447;DHT22;26430;48.818;9.244;2023-03-01T00:25:59;0.30;99.90
2447;DHT22;26430;48.818;9.244;2023-03-01T00:28:25;0.30;99.90
2447;DHT22;26430;48.818;9.244;2023-03-01T00:30:51;0.30;99.90
2447;DHT22;26430;48.818;9.244;2023-03-01T00:33:16;0.40;99.90
2447;DHT22;26430;48.818;9.244;2023-03-01T00:35:42;0.30;99.90
2447;DHT22;26430;48.818;9.244;2023-03-01T00:38:08;0.40;99.90
2447;DHT22;26430;48.818;9.244;2023-03-01T00:40:35;0.40;99.90
2447;DHT22;26430;48.818;9.244;2023-03-01T00:43:01;0.40;99.90
2447;DHT22;26430;48.818;9.244;2023-03-01T00:45:27;0.40;99.90
2447;DHT22;26430;48.818;9.244;2023-03-01T00:47:53;0.50;99.90
2447;DHT22;26430;48.818;9.244;2023-03-01T00:50:19;0.40;99.90
2447;DHT22;26430;48.818;9.244;2023-03-01T00:52:45;0.40;99.90
2447;DHT22;26430;48.818;9.244;2023-03-01T00:55:11;0.40;99.90
2447;DHT22;26430;48.818;9.244;2023-03-01T00:57:37;0.40;99.90
2447;DHT22;26430;48.818;9.244;2023-03-01T01:00:05;0.30;99.90
2447;DHT22;26430;48.818;9.244;2023-03-01T01:02:33;0.40;99.90
2447;DHT22;26430;48.818;9.244;2023-03-01T01:04:59;0.30;99.90
2447;DHT22;26430;48.818;9.244;2023-03-01T01:07:24;0.30;99.90
2447;DHT22;26430;48.818;9.244;2023-03-01T01:09:50;0.30;99.90
2447;DHT22;26430;48.818;9.244;2023-03-01T01:12:16;0.20;99.90
2447;DHT22;26430;48.818;9.244;2023-03-01T01:14:41;0.30;99.90
2447;DHT22;26430;48.818;9.244;2023-03-01T01:17:07;0.20;99.90
2447;DHT22;26430;48.818;9.244;2023-03-01T01:19:33;0.30;99.90
2447;DHT22;26430;48.818;9.244;2023-03-01T01:21:58;0.20;99.90
2447;DHT22;26430;48.818;9.244;2023-03-01T01:24:24;0.20;99.90
2447;DHT22;26430;48.818;9.244;2023-03-01T01:26:50;0.30;99.90
2447;DHT22;26430;48.818;9.244;2023-03-01T01:29:15;0.20;99.90
2447;DHT22;26430;48.818;9.244;2023-03-01T01:31:42;0.20;99.90
2447;DHT22;26430;48.818;9.244;2023-03-01T01:34:14;0.20;99.90
2447;DHT22;26430;48.818;9.244;2023-03-01T01:36:40;0.10;99.90
2447;DHT22;26430;48.818;9.244;2023-03-01T01:39:05;0.00;99.90
2447;DHT22;26430;48.818;9.244;2023-03-01T01:41:31;0.00;99.90
2447;DHT22;26430;48.818;9.244;2023-03-01T01:47:07;-0.20;99.90
2447;DHT22;26430;48.818;9.244;2023-03-01T01:49:49;-0.10;99.90
2447;DHT22;26430;48.818;9.244;2023-03-01T01:54:57;0.00;99.90
2447;DHT22;26430;48.818;9.244;2023-03-01T01:57:32;0.10;99.90
2447;DHT22;26430;48.818;9.244;2023-03-01T02:00:05;-0.10;99.90
2447;DHT22;26430;48.818;9.244;2023-03-01T02:02:31;0.00;99.90
2447;DHT22;26430;48.818;9.244;2023-03-01T02:05:22;0.10;99.90
2447;DHT22;26430;48.818;9.244;2023-03-01T02:07:49;0.20;99.90
2447;DHT22;26430;48.818;9.244;2023-03-01T02:10:16;0.20;99.90
2447;DHT22;26430;48.818;9.244;2023-03-01T02:12:42;0.20;99.90
2447;DHT22;26430;48.818;9.244;2023-03-01T02:15:08;0.30;99.90
2447;DHT22;26430;48.818;9.244;2023-03-01T02:17:34;0.30;99.90
2447;DHT22;26430;48.818;9.244;2023-03-01T02:22:33;0.30;99.90
2447;DHT22;26430;48.818;9.244;2023-03-01T02:27:45;0.40;99.90
2447;DHT22;26430;48.818;9.244;2023-03-01T02:30:12;0.50;99.90
2447;DHT22;26430;48.818;9.244;2023-03-01T02:32:40;0.50;99.90
2447;DHT22;26430;48.818;9.244;2023-03-01T02:35:10;0.40;99.90
2447;DHT22;26430;48.818;9.244;2023-03-01T02:37:37;0.50;99.90
2447;DHT22;26430;48.818;9.244;2023-03-01T02:40:08;0.60;99.90
2447;DHT22;26430;48.818;9.244;2023-03-01T02:42:42;0.60;99.90
2447;DHT22;26430;48.818;9.244;2023-03-01T02:45:10;0.60;99.90
2447;DHT22;26430;48.818;9.244;2023-03-01T02:47:36;0.50;99.90
2447;DHT22;26430;48.818;9.244;2023-03-01T02:50:02;0.50;99.90
2447;DHT22;26430;48.818;9.244;2023-03-01T02:52:44;0.50;99.90
2447;DHT22;26430;48.818;9.244;2023-03-01T02:55:13;0.60;99.90
2447;DHT22;26430;48.818;9.244;2023-03-01T02:57:42;0.60;99.90
2447;DHT22;26430;48.818;9.244;2023-03-01T03:00:35;0.70;99.90
2447;DHT22;26430;48.818;9.244;2023-03-01T03:02:59;0.70;99.90
2447;DHT22;26430;48.818;9.244;2023-03-01T03:05:29;0.70;99.90
2447;DHT22;26430;48.818;9.244;2023-03-01T03:07:56;0.70;99.90
2447;DHT22;26430;48.818;9.244;2023-03-01T03:10:23;0.60;99.90
2447;DHT22;26430;48.818;9.244;2023-03-01T03:12:55;0.50;99.90
2447;DHT22;26430;48.818;9.244;2023-03-01T03:15:22;0.60;99.90
2447;DHT22;26430;48.818;9.244;2023-03-01T03:17:48;0.50;99.90
2447;DHT22;26430;48.818;9.244;2023-03-01T03:20:18;0.60;99.90
2447;DHT22;26430;48.818;9.244;2023-03-01T03:22:48;0.60;99.90
2447;DHT22;26430;48.818;9.244;2023-03-01T03:25:15;0.60;99.90
2447;DHT22;26430;48.818;9.244;2023-03-01T03:27:43;0.70;99.90
2447;DHT22;26430;48.818;9.244;2023-03-01T03:30:10;0.70;99.90
2447;DHT22;26430;48.818;9.244;2023-03-01T03:32:42;0.80;99.90
2447;DHT22;26430;48.818;9.244;2023-03-01T03:35:09;0.80;99.90
2447;DHT22;26430;48.818;9.244;2023-03-01T03:37:39;0.90;99.90
2447;DHT22;26430;48.818;9.244;2023-03-01T03:40:24;0.90;99.90
2447;DHT22;26430;48.818;9.244;2023-03-01T03:42:49;0.90;99.90
2447;DHT22;26430;48.818;9.244;2023-03-01T03:45:16;0.90;99.90
2447;DHT22;26430;48.818;9.244;2023-03-01T03:47:42;1.00;99.90
2447;DHT22;26430;48.818;9.244;2023-03-01T03:50:13;1.00;99.90
2447;DHT22;26430;48.818;9.244;2023-03-01T03:52:39;1.00;99.90
2447;DHT22;26430;48.818;9.244;2023-03-01T03:55:07;1.10;99.90
2447;DHT22;26430;48.818;9.244;2023-03-01T03:57:40;1.10;99.90
2447;DHT22;26430;48.818;9.244;2023-03-01T04:00:10;1.10;99.90
2447;DHT22;26430;48.818;9.244;2023-03-01T04:02:43;1.10;99.90
2447;DHT22;26430;48.818;9.244;2023-03-01T04:05:11;1.10;99.90
2447;DHT22;26430;48.818;9.244;2023-03-01T04:07:38;1.10;99.90
2447;DHT22;26430;48.818;9.244;2023-03-01T04:10:05;1.10;99.90
2447;DHT22;26430;48.818;9.244;2023-03-01T04:12:32;1.10;99.90
2447;DHT22;26430;48.818;9.244;2023-03-01T04:15:03;1.10;99.90
2447;DHT22;26430;48.818;9.244;2023-03-01T04:17:41;1.20;99.90
2447;DHT22;26430;48.818;9.244;2023-03-01T04:20:14;1.20;99.90
2447;DHT22;26430;48.818;9.244;2023-03-01T04:22:43;1.40;99.90
2447;DHT22;26430;48.818;9.244;2023-03-01T04:25:11;1.30;99.90
2447;DHT22;26430;48.818;9.244;2023-03-01T04:27:40;1.20;99.90
2447;DHT22;26430;48.818;9.244;2023-03-01T04:30:06;1.10;99.90
2447;DHT22;26430;48.818;9.244;2023-03-01T04:32:33;1.20;99.90
2447;DHT22;26430;48.818;9.244;2023-03-01T04:34:59;1.10;99.90
2447;DHT22;26430;48.818;9.244;2023-03-01T04:37:25;1.10;99.90
2447;DHT22;26430;48.818;9.244;2023-03-01T04:39:51;1.20;99.90
2447;DHT22;26430;48.818;9.244;2023-03-01T04:42:17;1.20;99.90
2447;DHT22;26430;48.818;9.244;2023-03-01T04:44:44;1.20;99.90
2447;DHT22;26430;48.818;9.244;2023-03-01T04:47:09;1.20;99.90
2447;DHT22;26430;48.818;9.244;2023-03-01T04:49:35;1.30;99.90
2447;DHT22;26430;48.818;9.244;2023-03-01T04:52:01;1.30;99.90
2447;DHT22;26430;48.818;9.244;2023-03-01T04:54:31;1.30;99.90
2447;DHT22;26430;48.818;9.244;2023-03-01T04:56:58;1.30;99.90
2447;DHT22;26430;48.818;9.244;2023-03-01T04:59:24;1.20;99.90
2447;DHT22;26430;48.818;9.244;2023-03-01T05:01:51;1.30;99.90
2447;DHT22;26430;48.818;9.244;2023-03-01T05:04:17;1.30;99.90
2447;DHT22;26430;48.818;9.244;2023-03-01T05:06:43;1.20;99.90
2447;DHT22;26430;48.818;9.244;2023-03-01T05:09:10;1.20;99.90
2447;DHT22;26430;48.818;9.244;2023-03-01T05:11:37;1.30;99.90
2447;DHT22;26430;48.818;9.244;2023-03-01T05:14:04;1.30;99.90
2447;DHT22;26430;48.818;9.244;2023-03-01T05:16:30;1.40;99.90
2447;DHT22;26430;48.818;9.244;2023-03-01T05:18:57;1.40;99.90
2447;DHT22;26430;48.818;9.244;2023-03-01T05:21:23;1.50;99.90
2447;DHT22;26430;48.818;9.244;2023-03-01T05:23:48;1.50;99.90
2447;DHT22;26430;48.818;9.244;2023-03-01T05:26:15;1.50;99.90
2447;DHT22;26430;48.818;9.244;2023-03-01T05:28:43;1.50;99.90
2447;DHT22;26430;48.818;9.244;2023-03-01T05:31:08;1.40;99.90
2447;DHT22;26430;48.818;9.244;2023-03-01T05:33:38;1.50;99.90
2447;DHT22;26430;48.818;9.244;2023-03-01T05:36:05;1.50;99.90
2447;DHT22;26430;48.818;9.244;2023-03-01T05:38:31;1.40;99.90
2447;DHT22;26430;48.818;9.244;2023-03-01T05:40:57;1.30;99.90
2447;DHT22;26430;48.818;9.244;2023-03-01T05:43:23;1.30;99.90
2447;DHT22;26430;48.818;9.244;2023-03-01T05:45:48;1.30;99.90
2447;DHT22;26430;48.818;9.244;2023-03-01T05:48:14;1.30;99.90
2447;DHT22;26430;48.818;9.244;2023-03-01T05:50:42;1.30;99.90
2447;DHT22;26430;48.818;9.244;2023-03-01T05:53:14;1.30;99.90
2447;DHT22;26430;48.818;9.244;2023-03-01T05:55:40;1.30;99.90
2447;DHT22;26430;48.818;9.244;2023-03-01T05:58:12;1.40;99.90
2447;DHT22;26430;48.818;9.244;2023-03-01T06:00:39;1.50;99.90
2447;DHT22;26430;48.818;9.244;2023-03-01T06:03:05;1.50;99.90
2447;DHT22;26430;48.818;9.244;2023-03-01T06:05:31;1.40;99.90
2447;DHT22;26430;48.818;9.244;2023-03-01T06:08:00;1.40;99.90
2447;DHT22;26430;48.818;9.244;2023-03-01T06:10:26;1.40;99.90
2447;DHT22;26430;48.818;9.244;2023-03-01T06:12:52;1.40;99.90
2447;DHT22;26430;48.818;9.244;2023-03-01T06:15:18;1.50;99.90
2447;DHT22;26430;48.818;9.244;2023-03-01T06:17:45;1.40;99.90
2447;DHT22;26430;48.818;9.244;2023-03-01T06:20:19;1.40;99.90
2447;DHT22;26430;48.818;9.244;2023-03-01T06:22:46;1.50;99.90
2447;DHT22;26430;48.818;9.244;2023-03-01T06:25:14;1.50;99.90
2447;DHT22;26430;48.818;9.244;2023-03-01T06:27:40;1.40;99.90
2447;DHT22;26430;48.818;9.244;2023-03-01T06:30:07;1.30;99.90
2447;DHT22;26430;48.818;9.244;2023-03-01T06:32:33;1.20;99.90
2447;DHT22;26430;48.818;9.244;2023-03-01T06:34:58;1.20;99.90
2447;DHT22;26430;48.818;9.244;2023-03-01T06:37:25;1.10;99.90
2447;DHT22;26430;48.818;9.244;2023-03-01T06:39:51;1.10;99.90
2447;DHT22;26430;48.818;9.244;2023-03-01T06:42:16;1.20;99.90
2447;DHT22;26430;48.818;9.244;2023-03-01T06:44:43;1.30;99.90
2447;DHT22;26430;48.818;9.244;2023-03-01T06:47:09;1.30;99.90
2447;DHT22;26430;48.818;9.244;2023-03-01T06:49:34;1.30;99.90
2447;DHT22;26430;48.818;9.244;2023-03-01T06:52:00;1.40;99.90
2447;DHT22;26430;48.818;9.244;2023-03-01T06:54:26;1.30;99.90
2447;DHT22;26430;48.818;9.244;2023-03-01T06:56:51;1.20;99.90
2447;DHT22;26430;48.818;9.244;2023-03-01T06:59:19;1.20;99.90
2447;DHT22;26430;48.818;9.244;2023-03-01T07:01:44;1.30;99.90
2447;DHT22;26430;48.818;9.244;2023-03-01T07:04:11;1.20;99.90
2447;DHT22;26430;48.818;9.244;2023-03-01T07:06:36;1.20;99.90
2447;DHT22;26430;48.818;9.244;2023-03-01T07:09:02;1.10;99.90
2447;DHT22;26430;48.818;9.244;2023-03-01T07:11:28;1.10;99.90
2447;DHT22;26430;48.818;9.244;2023-03-01T07:13:53;1.20;99.90
2447;DHT22;26430;48.818;9.244;2023-03-01T07:16:20;1.20;99.90
2447;DHT22;26430;48.818;9.244;2023-03-01T07:18:46;1.20;99.90
2447;DHT22;26430;48.818;9.244;2023-03-01T07:21:13;1.00;99.90
2447;DHT22;26430;48.818;9.244;2023-03-01T07:23:39;1.00;99.90
2447;DHT22;26430;48.818;9.244;2023-03-01T07:26:05;1.10;99.90
2447;DHT22;26430;48.818;9.244;2023-03-01T07:28:31;1.10;99.90
2447;DHT22;26430;48.818;9.244;2023-03-01T07:31:05;1.10;99.90
2447;DHT22;26430;48.818;9.244;2023-03-01T07:33:31;1.00;99.90
2447;DHT22;26430;48.818;9.244;2023-03-01T07:36:01;1.10;99.90
2447;DHT22;26430;48.818;9.244;2023-03-01T07:38:28;1.20;99.90
2447;DHT22;26430;48.818;9.244;2023-03-01T07:41:00;1.20;99.90
2447;DHT22;26430;48.818;9.244;2023-03-01T07:43:29;1.30;99.90
2447;DHT22;26430;48.818;9.244;2023-03-01T07:46:00;1.30;99.90
2447;DHT22;26430;48.818;9.244;2023-03-01T07:48:26;1.30;99.90
2447;DHT22;26430;48.818;9.244;2023-03-01T07:50:51;1.20;99.90
2447;DHT22;26430;48.818;9.244;2023-03-01T07:53:17;1.30;99.90
2447;DHT22;26430;48.818;9.244;2023-03-01T07:55:43;1.30;99.90
2447;DHT22;26430;48.818;9.244;2023-03-01T07:58:08;1.30;99.90
2447;DHT22;26430;48.818;9.244;2023-03-01T08:00:34;1.30;99.90
2447;DHT22;26430;48.818;9.244;2023-03-01T08:03:00;1.30;99.90
2447;DHT22;26430;48.818;9.244;2023-03-01T08:05:27;1.30;99.90
2447;DHT22;26430;48.818;9.244;2023-03-01T08:07:53;1.30;99.90
2447;DHT22;26430;48.818;9.244;2023-03-01T08:10:19;1.30;99.90
2447;DHT22;26430;48.818;9.244;2023-03-01T08:12:45;1.40;99.90
2447;DHT22;26430;48.818;9.244;2023-03-01T08:15:10;1.50;99.90
2447;DHT22;26430;48.818;9.244;2023-03-01T08:17:36;1.60;99.90
2447;DHT22;26430;48.818;9.244;2023-03-01T08:20:02;1.60;99.90
2447;DHT22;26430;48.818;9.244;2023-03-01T08:22:29;1.70;99.90
2447;DHT22;26430;48.818;9.244;2023-03-01T08:24:55;1.80;99.90
2447;DHT22;26430;48.818;9.244;2023-03-01T08:27:21;1.90;99.90
2447;DHT22;26430;48.818;9.244;2023-03-01T08:29:46;2.00;99.90
2447;DHT22;26430;48.818;9.244;2023-03-01T08:32:12;1.90;99.90
2447;DHT22;26430;48.818;9.244;2023-03-01T08:34:38;2.00;99.90
2447;DHT22;26430;48.818;9.244;2023-03-01T08:37:03;2.00;99.90
2447;DHT22;26430;48.818;9.244;2023-03-01T08:39:29;2.00;99.90
2447;DHT22;26430;48.818;9.244;2023-03-01T08:41:55;2.00;99.90
2447;DHT22;26430;48.818;9.244;2023-03-01T08:44:20;2.10;99.90
2447;DHT22;26430;48.818;9.244;2023-03-01T08:46:46;2.10;99.90
2447;DHT22;26430;48.818;9.244;2023-03-01T08:49:16;2.30;99.90
2447;DHT22;26430;48.818;9.244;2023-03-01T08:51:42;2.30;99.90
2447;DHT22;26430;48.818;9.244;2023-03-01T08:54:14;2.50;99.90
2447;DHT22;26430;48.818;9.244;2023-03-01T08:56:41;2.60;99.90
2447;DHT22;26430;48.818;9.244;2023-03-01T08:59:07;2.70;99.90
2447;DHT22;26430;48.818;9.244;2023-03-01T09:01:33;2.70;99.90
2447;DHT22;26430;48.818;9.244;2023-03-01T09:03:59;2.80;99.90
2447;DHT22;26430;48.818;9.244;2023-03-01T09:06:25;2.90;99.90
2447;DHT22;26430;48.818;9.244;2023-03-01T09:08:51;3.00;99.90
2447;DHT22;26430;48.818;9.244;2023-03-01T09:11:19;3.00;99.90
2447;DHT22;26430;48.818;9.244;2023-03-01T09:13:46;3.00;99.90
2447;DHT22;26430;48.818;9.244;2023-03-01T09:16:13;3.10;99.90
2447;DHT22;26430;48.818;9.244;2023-03-01T09:18:39;3.20;99.90
2447;DHT22;26430;48.818;9.244;2023-03-01T09:21:08;3.30;99.90
2447;DHT22;26430;48.818;9.244;2023-03-01T09:23:35;3.50;99.90
2447;DHT22;26430;48.818;9.244;2023-03-01T09:26:02;3.70;99.90
2447;DHT22;26430;48.818;9.244;2023-03-01T09:28:28;4.10;99.90
2447;DHT22;26430;48.818;9.244;2023-03-01T09:30:57;4.40;99.90
2447;DHT22;26430;48.818;9.244;2023-03-01T09:33:22;4.90;99.90
2447;DHT22;26430;48.818;9.244;2023-03-01T09:35:48;5.70;99.90
2447;DHT22;26430;48.818;9.244;2023-03-01T09:38:13;6.40;99.90
2447;DHT22;26430;48.818;9.244;2023-03-01T09:40:43;7.00;99.90
2447;DHT22;26430;48.818;9.244;2023-03-01T09:45:48;8.20;99.90
2447;DHT22;26430;48.818;9.244;2023-03-01T09:48:21;8.70;99.90
2447;DHT22;26430;48.818;9.244;2023-03-01T09:50:50;9.30;99.90
2447;DHT22;26430;48.818;9.244;2023-03-01T09:53:20;9.80;98.00
2447;DHT22;26430;48.818;9.244;2023-03-01T09:55:55;10.10;96.40
2447;DHT22;26430;48.818;9.244;2023-03-01T10:04:30;9.70;93.50
2447;DHT22;26430;48.818;9.244;2023-03-01T10:09:49;10.00;93.60
2447;DHT22;26430;48.818;9.244;2023-03-01T10:12:20;10.00;91.30
2447;DHT22;26430;48.818;9.244;2023-03-01T10:15:25;10.30;91.30
2447;DHT22;26430;48.818;9.244;2023-03-01T10:18:00;10.30;90.50
2447;DHT22;26430;48.818;9.244;2023-03-01T10:23:10;10.20;91.00
2447;DHT22;26430;48.818;9.244;2023-03-01T10:25:44;10.70;89.80
2447;DHT22;26430;48.818;9.244;2023-03-01T10:28:26;9.40;88.10
2447;DHT22;26430;48.818;9.244;2023-03-01T10:30:53;10.00;90.30
2447;DHT22;26430;48.818;9.244;2023-03-01T10:33:23;10.10;86.60
2447;DHT22;26430;48.818;9.244;2023-03-01T10:35:51;11.30;85.90
2447;DHT22;26430;48.818;9.244;2023-03-01T10:38:18;11.30;87.20
2447;DHT22;26430;48.818;9.244;2023-03-01T10:40:59;10.90;86.30
2447;DHT22;26430;48.818;9.244;2023-03-01T10:46:30;11.70;81.20
2447;DHT22;26430;48.818;9.244;2023-03-01T10:51:32;10.60;84.30
2447;DHT22;26430;48.818;9.244;2023-03-01T10:53:58;10.70;84.10
2447;DHT22;26430;48.818;9.244;2023-03-01T10:56:23;11.30;83.70
2447;DHT22;26430;48.818;9.244;2023-03-01T10:59:09;11.50;81.40
2447;DHT22;26430;48.818;9.244;2023-03-01T11:01:44;11.80;81.70
2447;DHT22;26430;48.818;9.244;2023-03-01T11:04:12;11.80;80.10
2447;DHT22;26430;48.818;9.244;2023-03-01T11:06:40;10.80;79.80
2447;DHT22;26430;48.818;9.244;2023-03-01T11:09:23;10.60;82.50
2447;DHT22;26430;48.818;9.244;2023-03-01T11:11:54;10.40;82.60
2447;DHT22;26430;48.818;9.244;2023-03-01T11:14:28;11.40;82.00
2447;DHT22;26430;48.818;9.244;2023-03-01T11:17:20;11.90;80.40
2447;DHT22;26430;48.818;9.244;2023-03-01T11:25:19;11.10;81.80
2447;DHT22;26430;48.818;9.244;2023-03-01T11:27:46;10.80;82.60
2447;DHT22;26430;48.818;9.244;2023-03-01T11:30:23;9.80;82.20
2447;DHT22;26430;48.818;9.244;2023-03-01T11:32:54;10.50;82.80
2447;DHT22;26430;48.818;9.244;2023-03-01T11:35:27;11.00;82.70
2447;DHT22;26430;48.818;9.244;2023-03-01T11:38:16;11.20;82.30
2447;DHT22;26430;48.818;9.244;2023-03-01T11:40:48;11.50;80.30
2447;DHT22;26430;48.818;9.244;2023-03-01T11:52:06;11.80;79.80
2447;DHT22;26430;48.818;9.244;2023-03-01T11:54:57;11.90;80.00
2447;DHT22;26430;48.818;9.244;2023-03-01T12:14:49;11.70;80.10
2447;DHT22;26430;48.818;9.244;2023-03-01T12:25:47;11.70;77.40
2447;DHT22;26430;48.818;9.244;2023-03-01T12:28:44;11.80;79.20
2447;DHT22;26430;48.818;9.244;2023-03-01T12:31:26;12.00;79.00
2447;DHT22;26430;48.818;9.244;2023-03-01T12:39:35;11.70;79.70
2447;DHT22;26430;48.818;9.244;2023-03-01T12:50:18;11.60;79.70
2447;DHT22;26430;48.818;9.244;2023-03-01T12:52:50;11.80;79.50
2447;DHT22;26430;48.818;9.244;2023-03-01T12:55:29;11.90;78.60
2447;DHT22;26430;48.818;9.244;2023-03-01T12:58:21;11.90;78.80
2447;DHT22;26430;48.818;9.244;2023-03-01T13:06:45;11.90;78.90
2447;DHT22;26430;48.818;9.244;2023-03-01T13:09:27;11.90;78.00
2447;DHT22;26430;48.818;9.244;2023-03-01T13:11:56;11.90;79.10
2447;DHT22;26430;48.818;9.244;2023-03-01T13:16:52;11.50;79.40
2447;DHT22;26430;48.818;9.244;2023-03-01T13:19:22;11.50;79.60
2447;DHT22;26430;48.818;9.244;2023-03-01T13:21:51;11.80;80.10
2447;DHT22;26430;48.818;9.244;2023-03-01T13:24:39;11.80;78.20
2447;DHT22;26430;48.818;9.244;2023-03-01T13:29:45;11.80;77.80
2447;DHT22;26430;48.818;9.244;2023-03-01T13:32:43;11.60;79.30
2447;DHT22;26430;48.818;9.244;2023-03-01T13:37:41;11.40;80.40
2447;DHT22;26430;48.818;9.244;2023-03-01T13:43:22;11.20;80.40
2447;DHT22;26430;48.818;9.244;2023-03-01T13:45:52;11.00;79.80
2447;DHT22;26430;48.818;9.244;2023-03-01T13:48:27;10.90;81.40
2447;DHT22;26430;48.818;9.244;2023-03-01T13:51:11;11.00;81.10
2447;DHT22;26430;48.818;9.244;2023-03-01T13:53:43;10.90;82.30
2447;DHT22;26430;48.818;9.244;2023-03-01T13:56:55;10.90;82.20
2447;DHT22;26430;48.818;9.244;2023-03-01T13:59:05;10.90;83.00
2447;DHT22;26430;48.818;9.244;2023-03-01T14:01:34;10.70;83.10
2447;DHT22;26430;48.818;9.244;2023-03-01T14:04:01;10.60;83.40
2447;DHT22;26430;48.818;9.244;2023-03-01T14:06:30;10.50;83.50
2447;DHT22;26430;48.818;9.244;2023-03-01T14:09:10;10.30;83.90
2447;DHT22;26430;48.818;9.244;2023-03-01T14:14:42;10.20;83.90
2447;DHT22;26430;48.818;9.244;2023-03-01T14:19:35;10.00;83.80
2447;DHT22;26430;48.818;9.244;2023-03-01T14:22:29;9.80;85.20
2447;DHT22;26430;48.818;9.244;2023-03-01T14:24:58;9.90;86.90
2447;DHT22;26430;48.818;9.244;2023-03-01T14:27:37;9.80;86.00
2447;DHT22;26430;48.818;9.244;2023-03-01T14:30:37;9.80;86.80
2447;DHT22;26430;48.818;9.244;2023-03-01T14:33:16;9.70;87.30
2447;DHT22;26430;48.818;9.244;2023-03-01T14:35:42;9.90;87.70
2447;DHT22;26430;48.818;9.244;2023-03-01T14:38:28;9.80;87.60
2447;DHT22;26430;48.818;9.244;2023-03-01T14:40:58;9.80;87.60
2447;DHT22;26430;48.818;9.244;2023-03-01T14:43:24;9.80;88.10
2447;DHT22;26430;48.818;9.244;2023-03-01T14:45:53;9.70;87.40
2447;DHT22;26430;48.818;9.244;2023-03-01T14:48:19;9.70;87.80
2447;DHT22;26430;48.818;9.244;2023-03-01T14:50:45;9.50;87.30
2447;DHT22;26430;48.818;9.244;2023-03-01T14:53:24;9.50;87.70
2447;DHT22;26430;48.818;9.244;2023-03-01T14:55:53;9.50;88.50
2447;DHT22;26430;48.818;9.244;2023-03-01T14:58:24;9.60;87.80
2447;DHT22;26430;48.818;9.244;2023-03-01T15:00:54;9.50;88.60
2447;DHT22;26430;48.818;9.244;2023-03-01T15:03:30;9.50;88.50
2447;DHT22;26430;48.818;9.244;2023-03-01T15:05:56;9.50;88.80
2447;DHT22;26430;48.818;9.244;2023-03-01T15:08:26;9.40;88.80
2447;DHT22;26430;48.818;9.244;2023-03-01T15:11:03;9.40;88.70
2447;DHT22;26430;48.818;9.244;2023-03-01T15:13:34;9.30;89.50
2447;DHT22;26430;48.818;9.244;2023-03-01T15:18:31;9.40;88.80
2447;DHT22;26430;48.818;9.244;2023-03-01T15:21:13;9.30;90.40
2447;DHT22;26430;48.818;9.244;2023-03-01T15:23:40;9.20;89.30
2447;DHT22;26430;48.818;9.244;2023-03-01T15:26:06;9.10;90.30
2447;DHT22;26430;48.818;9.244;2023-03-01T15:28:49;9.30;90.00
2447;DHT22;26430;48.818;9.244;2023-03-01T15:31:28;9.30;88.00
2447;DHT22;26430;48.818;9.244;2023-03-01T15:34:23;9.10;88.50
2447;DHT22;26430;48.818;9.244;2023-03-01T15:36:49;9.10;89.50
2447;DHT22;26430;48.818;9.244;2023-03-01T15:39:31;9.10;90.10
2447;DHT22;26430;48.818;9.244;2023-03-01T15:42:48;9.00;88.90
2447;DHT22;26430;48.818;9.244;2023-03-01T15:44:48;8.80;89.10
2447;DHT22;26430;48.818;9.244;2023-03-01T15:47:26;8.90;89.40
2447;DHT22;26430;48.818;9.244;2023-03-01T15:49:53;8.80;88.80
2447;DHT22;26430;48.818;9.244;2023-03-01T15:52:35;8.70;89.00
2447;DHT22;26430;48.818;9.244;2023-03-01T15:55:12;8.70;88.60
2447;DHT22;26430;48.818;9.244;2023-03-01T15:57:39;8.70;89.00
2447;DHT22;26430;48.818;9.244;2023-03-01T16:00:05;8.70;89.60
2447;DHT22;26430;48.818;9.244;2023-03-01T16:02:37;8.70;89.10
2447;DHT22;26430;48.818;9.244;2023-03-01T16:05:03;8.70;88.60
2447;DHT22;26430;48.818;9.244;2023-03-01T16:07:29;8.70;89.30
2447;DHT22;26430;48.818;9.244;2023-03-01T16:09:56;8.60;89.30
2447;DHT22;26430;48.818;9.244;2023-03-01T16:12:22;8.60;88.70
2447;DHT22;26430;48.818;9.244;2023-03-01T16:14:50;8.60;88.80
2447;DHT22;26430;48.818;9.244;2023-03-01T16:17:16;8.80;89.20
2447;DHT22;26430;48.818;9.244;2023-03-01T16:19:41;8.50;89.00
2447;DHT22;26430;48.818;9.244;2023-03-01T16:22:10;8.40;89.00
2447;DHT22;26430;48.818;9.244;2023-03-01T16:24:35;8.30;89.80
2447;DHT22;26430;48.818;9.244;2023-03-01T16:27:02;8.40;90.20
2447;DHT22;26430;48.818;9.244;2023-03-01T16:29:27;8.40;90.30
2447;DHT22;26430;48.818;9.244;2023-03-01T16:31:54;8.30;90.60
2447;DHT22;26430;48.818;9.244;2023-03-01T16:34:20;8.10;90.60
2447;DHT22;26430;48.818;9.244;2023-03-01T16:36:47;8.10;90.60
2447;DHT22;26430;48.818;9.244;2023-03-01T16:39:13;8.00;90.50
2447;DHT22;26430;48.818;9.244;2023-03-01T16:41:38;7.90;90.90
2447;DHT22;26430;48.818;9.244;2023-03-01T16:44:04;7.90;90.80
2447;DHT22;26430;48.818;9.244;2023-03-01T16:46:30;7.90;90.70
2447;DHT22;26430;48.818;9.244;2023-03-01T16:48:56;7.80;91.10
2447;DHT22;26430;48.818;9.244;2023-03-01T16:51:23;7.70;91.10
2447;DHT22;26430;48.818;9.244;2023-03-01T16:53:49;7.70;91.30
2447;DHT22;26430;48.818;9.244;2023-03-01T16:56:16;7.60;91.60
2447;DHT22;26430;48.818;9.244;2023-03-01T16:58:42;7.50;91.20
2447;DHT22;26430;48.818;9.244;2023-03-01T17:01:10;7.50;91.80
2447;DHT22;26430;48.818;9.244;2023-03-01T17:03:37;7.40;92.00
2447;DHT22;26430;48.818;9.244;2023-03-01T17:06:09;7.20;92.20
2447;DHT22;26430;48.818;9.244;2023-03-01T17:08:36;7.20;92.40
2447;DHT22;26430;48.818;9.244;2023-03-01T17:11:04;7.20;92.30
2447;DHT22;26430;48.818;9.244;2023-03-01T17:13:30;7.10;92.40
2447;DHT22;26430;48.818;9.244;2023-03-01T17:15:55;7.00;92.60
2447;DHT22;26430;48.818;9.244;2023-03-01T17:18:21;7.00;93.10
2447;DHT22;26430;48.818;9.244;2023-03-01T17:20:47;6.90;93.00
2447;DHT22;26430;48.818;9.244;2023-03-01T17:23:12;6.80;93.40
2447;DHT22;26430;48.818;9.244;2023-03-01T17:25:42;6.70;93.60
2447;DHT22;26430;48.818;9.244;2023-03-01T17:28:10;6.60;93.90
2447;DHT22;26430;48.818;9.244;2023-03-01T17:30:36;6.60;93.90
2447;DHT22;26430;48.818;9.244;2023-03-01T17:33:01;6.60;94.00
2447;DHT22;26430;48.818;9.244;2023-03-01T17:35:27;6.50;94.10
2447;DHT22;26430;48.818;9.244;2023-03-01T17:37:53;6.50;94.30
2447;DHT22;26430;48.818;9.244;2023-03-01T17:40:18;6.40;94.60
2447;DHT22;26430;48.818;9.244;2023-03-01T17:42:44;6.40;94.60
2447;DHT22;26430;48.818;9.244;2023-03-01T17:45:10;6.40;94.70
2447;DHT22;26430;48.818;9.244;2023-03-01T17:47:35;6.20;94.80
2447;DHT22;26430;48.818;9.244;2023-03-01T17:50:01;6.10;95.00
2447;DHT22;26430;48.818;9.244;2023-03-01T17:52:28;5.90;95.20
2447;DHT22;26430;48.818;9.244;2023-03-01T17:54:53;5.80;95.50
2447;DHT22;26430;48.818;9.244;2023-03-01T17:57:19;5.70;95.80
2447;DHT22;26430;48.818;9.244;2023-03-01T17:59:45;5.70;96.00
2447;DHT22;26430;48.818;9.244;2023-03-01T18:02:11;5.70;96.10
2447;DHT22;26430;48.818;9.244;2023-03-01T18:04:37;5.70;96.10